sensor_id;sensor_type;location;lat;lon;timestamp;temperature;humidity
19348;DHT22;9810;52.480;9.806;2022-10-26T00:01:04;7.70;99.90
19348;DHT22;9810;52.480;9.806;2022-10-26T00:03:33;7.80;99.90
19348;DHT22;9810;52.480;9.806;2022-10-26T00:06:05;7.70;99.90
19348;DHT22;9810;52.480;9.806;2022-10-26T00:08:32;7.60;99.90
19348;DHT22;9810;52.480;9.806;2022-10-26T00:11:00;7.80;99.90
19348;DHT22;9810;52.480;9.806;2022-10-26T00:13:29;7.70;99.90
19348;DHT22;9810;52.480;9.806;2022-10-26T00:15:56;7.70;99.90
19348;DHT22;9810;52.480;9.806;2022-10-26T00:18:23;7.60;99.90
19348;DHT22;9810;52.480;9.806;2022-10-26T00:20:51;7.50;99.90
19348;DHT22;9810;52.480;9.806;2022-10-26T00:23:17;7.60;99.90
19348;DHT22;9810;52.480;9.806;2022-10-26T00:25:53;7.60;99.90
19348;DHT22;9810;52.480;9.806;2022-10-26T00:28:20;7.70;99.90
19348;DHT22;9810;52.480;9.806;2022-10-26T00:30:49;7.70;99.90
19348;DHT22;9810;52.480;9.806;2022-10-26T00:33:16;7.70;99.90
19348;DHT22;9810;52.480;9.806;2022-10-26T00:35:46;7.60;99.90
19348;DHT22;9810;52.480;9.806;2022-10-26T00:38:14;7.60;99.90
19348;DHT22;9810;52.480;9.806;2022-10-26T00:40:41;7.70;99.90
19348;DHT22;9810;52.480;9.806;2022-10-26T00:43:14;7.90;99.90
19348;DHT22;9810;52.480;9.806;2022-10-26T00:45:42;7.90;99.90
19348;DHT22;9810;52.480;9.806;2022-10-26T00:48:14;8.00;99.90
19348;DHT22;9810;52.480;9.806;2022-10-26T00:50:45;8.10;99.90
19348;DHT22;9810;52.480;9.806;2022-10-26T00:53:13;7.90;99.90
19348;DHT22;9810;52.480;9.806;2022-10-26T00:55:44;8.00;99.90
19348;DHT22;9810;52.480;9.806;2022-10-26T00:58:12;8.00;99.90
19348;DHT22;9810;52.480;9.806;2022-10-26T01:00:41;8.00;99.90
19348;DHT22;9810;52.480;9.806;2022-10-26T01:03:10;8.00;99.90
19348;DHT22;9810;52.480;9.806;2022-10-26T01:05:40;7.90;99.90
19348;DHT22;9810;52.480;9.806;2022-10-26T01:08:08;7.90;99.90
19348;DHT22;9810;52.480;9.806;2022-10-26T01:10:37;7.70;99.90
19348;DHT22;9810;52.480;9.806;2022-10-26T01:13:05;7.70;99.90
19348;DHT22;9810;52.480;9.806;2022-10-26T01:15:38;7.60;99.90
19348;DHT22;9810;52.480;9.806;2022-10-26T01:18:17;7.50;99.90
19348;DHT22;9810;52.480;9.806;2022-10-26T01:21:07;7.40;99.90
19348;DHT22;9810;52.480;9.806;2022-10-26T01:23:53;7.40;99.90
19348;DHT22;9810;52.480;9.806;2022-10-26T01:27:02;7.40;99.90
19348;DHT22;9810;52.480;9.806;2022-10-26T01:29:53;7.30;99.90
19348;DHT22;9810;52.480;9.806;2022-10-26T01:32:28;7.20;99.90
19348;DHT22;9810;52.480;9.806;2022-10-26T01:35:05;7.30;99.90
19348;DHT22;9810;52.480;9.806;2022-10-26T01:37:36;7.20;99.90
19348;DHT22;9810;52.480;9.806;2022-10-26T01:40:09;7.20;99.90
19348;DHT22;9810;52.480;9.806;2022-10-26T01:42:40;7.20;99.90
19348;DHT22;9810;52.480;9.806;2022-10-26T01:45:11;7.40;99.90
19348;DHT22;9810;52.480;9.806;2022-10-26T01:47:43;7.70;99.90
19348;DHT22;9810;52.480;9.806;2022-10-26T01:50:11;7.70;99.90
19348;DHT22;9810;52.480;9.806;2022-10-26T01:52:39;7.70;99.90
19348;DHT22;9810;52.480;9.806;2022-10-26T01:55:38;7.70;99.90
19348;DHT22;9810;52.480;9.806;2022-10-26T01:58:13;7.60;99.90
19348;DHT22;9810;52.480;9.806;2022-10-26T02:00:51;7.50;99.90
19348;DHT22;9810;52.480;9.806;2022-10-26T02:03:28;7.50;99.90
19348;DHT22;9810;52.480;9.806;2022-10-26T02:06:05;7.20;99.90
19348;DHT22;9810;52.480;9.806;2022-10-26T02:11:35;7.10;99.90
19348;DHT22;9810;52.480;9.806;2022-10-26T02:14:10;7.20;99.90
19348;DHT22;9810;52.480;9.806;2022-10-26T02:16:43;7.30;99.90
19348;DHT22;9810;52.480;9.806;2022-10-26T02:19:24;7.20;99.90
19348;DHT22;9810;52.480;9.806;2022-10-26T02:21:57;7.20;99.90
19348;DHT22;9810;52.480;9.806;2022-10-26T02:24:27;7.30;99.90
19348;DHT22;9810;52.480;9.806;2022-10-26T02:26:55;7.30;99.90
19348;DHT22;9810;52.480;9.806;2022-10-26T02:29:24;7.20;99.90
19348;DHT22;9810;52.480;9.806;2022-10-26T02:31:52;7.30;99.90
19348;DHT22;9810;52.480;9.806;2022-10-26T02:34:23;7.40;99.90
19348;DHT22;9810;52.480;9.806;2022-10-26T02:36:53;7.40;99.90
19348;DHT22;9810;52.480;9.806;2022-10-26T02:39:22;7.20;99.90
19348;DHT22;9810;52.480;9.806;2022-10-26T02:41:50;7.10;99.90
19348;DHT22;9810;52.480;9.806;2022-10-26T02:44:22;7.10;99.90
19348;DHT22;9810;52.480;9.806;2022-10-26T02:46:52;7.20;99.90
19348;DHT22;9810;52.480;9.806;2022-10-26T02:49:21;7.30;99.90
19348;DHT22;9810;52.480;9.806;2022-10-26T02:51:52;7.60;99.90
19348;DHT22;9810;52.480;9.806;2022-10-26T02:54:27;7.70;99.90
19348;DHT22;9810;52.480;9.806;2022-10-26T02:56:58;7.80;99.90
19348;DHT22;9810;52.480;9.806;2022-10-26T02:59:29;8.10;99.90
19348;DHT22;9810;52.480;9.806;2022-10-26T03:01:59;8.10;99.90
19348;DHT22;9810;52.480;9.806;2022-10-26T03:04:29;8.00;99.90
19348;DHT22;9810;52.480;9.806;2022-10-26T03:06:57;8.00;99.90
19348;DHT22;9810;52.480;9.806;2022-10-26T03:09:24;7.90;99.90
19348;DHT22;9810;52.480;9.806;2022-10-26T03:11:52;7.70;99.90
19348;DHT22;9810;52.480;9.806;2022-10-26T03:14:19;7.60;99.90
19348;DHT22;9810;52.480;9.806;2022-10-26T03:16:46;7.50;99.90
19348;DHT22;9810;52.480;9.806;2022-10-26T03:19:13;7.60;99.90
19348;DHT22;9810;52.480;9.806;2022-10-26T03:21:42;7.60;99.90
19348;DHT22;9810;52.480;9.806;2022-10-26T03:24:09;7.50;99.90
19348;DHT22;9810;52.480;9.806;2022-10-26T03:26:37;7.50;99.90
19348;DHT22;9810;52.480;9.806;2022-10-26T03:29:04;7.50;99.90
19348;DHT22;9810;52.480;9.806;2022-10-26T03:31:34;7.60;99.90
19348;DHT22;9810;52.480;9.806;2022-10-26T03:34:01;7.50;99.90
19348;DHT22;9810;52.480;9.806;2022-10-26T03:36:28;7.50;99.90
19348;DHT22;9810;52.480;9.806;2022-10-26T03:38:57;7.60;99.90
19348;DHT22;9810;52.480;9.806;2022-10-26T03:41:24;7.60;99.90
19348;DHT22;9810;52.480;9.806;2022-10-26T03:43:52;7.60;99.90
19348;DHT22;9810;52.480;9.806;2022-10-26T03:46:19;7.50;99.90
19348;DHT22;9810;52.480;9.806;2022-10-26T03:48:46;7.50;99.90
19348;DHT22;9810;52.480;9.806;2022-10-26T03:51:13;7.40;99.90
19348;DHT22;9810;52.480;9.806;2022-10-26T03:53:41;7.30;99.90
19348;DHT22;9810;52.480;9.806;2022-10-26T03:56:09;7.30;99.90
19348;DHT22;9810;52.480;9.806;2022-10-26T03:58:36;7.20;99.90
19348;DHT22;9810;52.480;9.806;2022-10-26T04:01:03;7.30;99.90
19348;DHT22;9810;52.480;9.806;2022-10-26T04:03:30;7.40;99.90
19348;DHT22;9810;52.480;9.806;2022-10-26T04:05:59;7.50;99.90
19348;DHT22;9810;52.480;9.806;2022-10-26T04:08:26;7.60;99.90
19348;DHT22;9810;52.480;9.806;2022-10-26T04:10:53;7.60;99.90
19348;DHT22;9810;52.480;9.806;2022-10-26T04:13:22;7.40;99.90
19348;DHT22;9810;52.480;9.806;2022-10-26T04:15:49;7.20;99.90
19348;DHT22;9810;52.480;9.806;2022-10-26T04:18:16;7.30;99.90
19348;DHT22;9810;52.480;9.806;2022-10-26T04:20:43;7.50;99.90
19348;DHT22;9810;52.480;9.806;2022-10-26T04:23:12;7.50;99.90
19348;DHT22;9810;52.480;9.806;2022-10-26T04:25:39;7.50;99.90
19348;DHT22;9810;52.480;9.806;2022-10-26T04:28:08;7.40;99.90
19348;DHT22;9810;52.480;9.806;2022-10-26T04:30:37;7.40;99.90
19348;DHT22;9810;52.480;9.806;2022-10-26T04:33:06;8.00;99.90
19348;DHT22;9810;52.480;9.806;2022-10-26T04:35:33;8.10;99.90
19348;DHT22;9810;52.480;9.806;2022-10-26T04:38:02;8.30;99.90
19348;DHT22;9810;52.480;9.806;2022-10-26T04:40:31;8.60;99.90
19348;DHT22;9810;52.480;9.806;2022-10-26T04:42:58;9.00;99.90
19348;DHT22;9810;52.480;9.806;2022-10-26T04:45:26;9.20;99.90
19348;DHT22;9810;52.480;9.806;2022-10-26T04:48:04;9.30;99.90
19348;DHT22;9810;52.480;9.806;2022-10-26T04:50:32;9.40;99.90
19348;DHT22;9810;52.480;9.806;2022-10-26T04:52:59;9.30;99.90
19348;DHT22;9810;52.480;9.806;2022-10-26T04:55:26;9.20;99.90
19348;DHT22;9810;52.480;9.806;2022-10-26T04:57:53;8.90;99.90
19348;DHT22;9810;52.480;9.806;2022-10-26T05:00:20;9.00;99.90
19348;DHT22;9810;52.480;9.806;2022-10-26T05:02:48;8.90;99.90
19348;DHT22;9810;52.480;9.806;2022-10-26T05:05:17;8.70;99.90
19348;DHT22;9810;52.480;9.806;2022-10-26T05:07:52;8.50;99.90
19348;DHT22;9810;52.480;9.806;2022-10-26T05:10:19;8.30;99.90
19348;DHT22;9810;52.480;9.806;2022-10-26T05:12:50;8.20;99.90
19348;DHT22;9810;52.480;9.806;2022-10-26T05:15:17;8.30;99.90
19348;DHT22;9810;52.480;9.806;2022-10-26T05:17:45;8.30;99.90
19348;DHT22;9810;52.480;9.806;2022-10-26T05:20:12;8.20;99.90
19348;DHT22;9810;52.480;9.806;2022-10-26T05:22:41;8.00;99.90
19348;DHT22;9810;52.480;9.806;2022-10-26T05:25:08;8.10;99.90
19348;DHT22;9810;52.480;9.806;2022-10-26T05:27:35;8.10;99.90
19348;DHT22;9810;52.480;9.806;2022-10-26T05:30:03;8.00;99.90
19348;DHT22;9810;52.480;9.806;2022-10-26T05:32:30;7.90;99.90
19348;DHT22;9810;52.480;9.806;2022-10-26T05:34:57;7.80;99.90
19348;DHT22;9810;52.480;9.806;2022-10-26T05:37:27;7.90;99.90
19348;DHT22;9810;52.480;9.806;2022-10-26T05:39:56;7.70;99.90
19348;DHT22;9810;52.480;9.806;2022-10-26T05:42:23;7.70;99.90
19348;DHT22;9810;52.480;9.806;2022-10-26T05:44:51;7.60;99.90
19348;DHT22;9810;52.480;9.806;2022-10-26T05:47:18;7.70;99.90
19348;DHT22;9810;52.480;9.806;2022-10-26T05:49:45;8.10;99.90
19348;DHT22;9810;52.480;9.806;2022-10-26T05:52:13;8.50;99.90
19348;DHT22;9810;52.480;9.806;2022-10-26T05:54:40;8.60;99.90
19348;DHT22;9810;52.480;9.806;2022-10-26T05:57:11;8.60;99.90
19348;DHT22;9810;52.480;9.806;2022-10-26T05:59:39;8.70;99.90
19348;DHT22;9810;52.480;9.806;2022-10-26T06:02:11;8.90;99.90
19348;DHT22;9810;52.480;9.806;2022-10-26T06:04:42;8.80;99.90
19348;DHT22;9810;52.480;9.806;2022-10-26T06:07:14;9.00;99.90
19348;DHT22;9810;52.480;9.806;2022-10-26T06:09:42;9.00;99.90
19348;DHT22;9810;52.480;9.806;2022-10-26T06:12:13;9.20;99.90
19348;DHT22;9810;52.480;9.806;2022-10-26T06:14:41;9.00;99.90
19348;DHT22;9810;52.480;9.806;2022-10-26T06:17:23;9.20;99.90
19348;DHT22;9810;52.480;9.806;2022-10-26T06:20:10;9.30;99.90
19348;DHT22;9810;52.480;9.806;2022-10-26T06:22:52;9.40;99.90
19348;DHT22;9810;52.480;9.806;2022-10-26T06:25:28;9.30;99.90
19348;DHT22;9810;52.480;9.806;2022-10-26T06:28:10;9.30;99.90
19348;DHT22;9810;52.480;9.806;2022-10-26T06:30:39;9.20;99.90
19348;DHT22;9810;52.480;9.806;2022-10-26T06:33:08;9.20;99.90
19348;DHT22;9810;52.480;9.806;2022-10-26T06:35:42;9.20;99.90
19348;DHT22;9810;52.480;9.806;2022-10-26T06:38:14;9.20;99.90
19348;DHT22;9810;52.480;9.806;2022-10-26T06:40:45;9.00;99.90
19348;DHT22;9810;52.480;9.806;2022-10-26T06:43:22;8.80;99.90
19348;DHT22;9810;52.480;9.806;2022-10-26T06:45:55;8.70;99.90
19348;DHT22;9810;52.480;9.806;2022-10-26T06:48:34;9.10;99.90
19348;DHT22;9810;52.480;9.806;2022-10-26T06:51:11;9.00;99.90
19348;DHT22;9810;52.480;9.806;2022-10-26T06:53:44;8.80;99.90
19348;DHT22;9810;52.480;9.806;2022-10-26T06:56:16;8.70;99.90
19348;DHT22;9810;52.480;9.806;2022-10-26T06:58:45;8.70;99.90
19348;DHT22;9810;52.480;9.806;2022-10-26T07:01:13;8.60;99.90
19348;DHT22;9810;52.480;9.806;2022-10-26T07:03:41;8.70;99.90
19348;DHT22;9810;52.480;9.806;2022-10-26T07:06:08;8.70;99.90
19348;DHT22;9810;52.480;9.806;2022-10-26T07:08:35;8.70;99.90
19348;DHT22;9810;52.480;9.806;2022-10-26T07:11:02;8.80;99.90
19348;DHT22;9810;52.480;9.806;2022-10-26T07:13:30;8.90;99.90
19348;DHT22;9810;52.480;9.806;2022-10-26T07:15:59;9.10;99.90
19348;DHT22;9810;52.480;9.806;2022-10-26T07:18:26;9.50;99.90
19348;DHT22;9810;52.480;9.806;2022-10-26T07:20:53;10.30;99.90
19348;DHT22;9810;52.480;9.806;2022-10-26T07:23:20;11.20;99.90
19348;DHT22;9810;52.480;9.806;2022-10-26T07:25:47;11.80;99.90
19348;DHT22;9810;52.480;9.806;2022-10-26T07:28:15;13.00;99.90
19348;DHT22;9810;52.480;9.806;2022-10-26T07:30:42;14.10;99.90
19348;DHT22;9810;52.480;9.806;2022-10-26T07:33:11;15.10;99.90
19348;DHT22;9810;52.480;9.806;2022-10-26T07:35:39;15.60;99.90
19348;DHT22;9810;52.480;9.806;2022-10-26T07:38:07;15.40;99.90
19348;DHT22;9810;52.480;9.806;2022-10-26T07:40:35;16.30;99.90
19348;DHT22;9810;52.480;9.806;2022-10-26T07:43:02;17.10;99.90
19348;DHT22;9810;52.480;9.806;2022-10-26T07:45:29;17.50;99.90
19348;DHT22;9810;52.480;9.806;2022-10-26T07:47:56;18.10;99.90
19348;DHT22;9810;52.480;9.806;2022-10-26T07:50:25;18.80;99.90
19348;DHT22;9810;52.480;9.806;2022-10-26T07:52:52;18.40;99.90
19348;DHT22;9810;52.480;9.806;2022-10-26T07:55:19;18.60;99.90
19348;DHT22;9810;52.480;9.806;2022-10-26T07:57:46;18.70;99.90
19348;DHT22;9810;52.480;9.806;2022-10-26T08:00:14;18.40;99.90
19348;DHT22;9810;52.480;9.806;2022-10-26T08:02:41;16.90;99.90
19348;DHT22;9810;52.480;9.806;2022-10-26T08:05:08;15.70;99.90
19348;DHT22;9810;52.480;9.806;2022-10-26T08:07:40;15.50;99.90
19348;DHT22;9810;52.480;9.806;2022-10-26T08:10:09;15.20;99.90
19348;DHT22;9810;52.480;9.806;2022-10-26T08:12:37;14.70;99.90
19348;DHT22;9810;52.480;9.806;2022-10-26T08:15:05;14.50;99.90
19348;DHT22;9810;52.480;9.806;2022-10-26T08:17:32;14.20;99.90
19348;DHT22;9810;52.480;9.806;2022-10-26T08:19:59;14.30;99.90
19348;DHT22;9810;52.480;9.806;2022-10-26T08:22:27;14.10;99.90
19348;DHT22;9810;52.480;9.806;2022-10-26T08:24:56;14.10;99.90
19348;DHT22;9810;52.480;9.806;2022-10-26T08:27:23;14.30;99.90
19348;DHT22;9810;52.480;9.806;2022-10-26T08:29:51;14.30;99.90
19348;DHT22;9810;52.480;9.806;2022-10-26T08:32:18;14.50;99.90
19348;DHT22;9810;52.480;9.806;2022-10-26T08:34:45;14.40;99.90
19348;DHT22;9810;52.480;9.806;2022-10-26T08:37:12;14.40;99.90
19348;DHT22;9810;52.480;9.806;2022-10-26T08:39:39;14.40;99.90
19348;DHT22;9810;52.480;9.806;2022-10-26T08:42:12;14.30;99.90
19348;DHT22;9810;52.480;9.806;2022-10-26T08:44:44;14.30;99.90
19348;DHT22;9810;52.480;9.806;2022-10-26T08:47:17;14.20;99.90
19348;DHT22;9810;52.480;9.806;2022-10-26T08:49:49;14.20;99.90
19348;DHT22;9810;52.480;9.806;2022-10-26T08:52:22;14.00;99.90
19348;DHT22;9810;52.480;9.806;2022-10-26T08:54:54;13.90;99.90
19348;DHT22;9810;52.480;9.806;2022-10-26T08:57:25;13.90;99.90
19348;DHT22;9810;52.480;9.806;2022-10-26T08:59:56;14.10;99.90
19348;DHT22;9810;52.480;9.806;2022-10-26T09:02:25;14.40;99.90
19348;DHT22;9810;52.480;9.806;2022-10-26T09:04:52;14.20;99.90
19348;DHT22;9810;52.480;9.806;2022-10-26T09:07:34;14.30;99.90
19348;DHT22;9810;52.480;9.806;2022-10-26T09:10:12;14.20;99.90
19348;DHT22;9810;52.480;9.806;2022-10-26T09:12:50;14.40;99.90
19348;DHT22;9810;52.480;9.806;2022-10-26T09:15:26;14.60;99.90
19348;DHT22;9810;52.480;9.806;2022-10-26T09:18:02;14.50;99.90
19348;DHT22;9810;52.480;9.806;2022-10-26T09:20:52;14.50;99.90
19348;DHT22;9810;52.480;9.806;2022-10-26T09:23:32;14.60;99.90
19348;DHT22;9810;52.480;9.806;2022-10-26T09:26:02;14.40;99.90
19348;DHT22;9810;52.480;9.806;2022-10-26T09:28:35;14.70;99.90
19348;DHT22;9810;52.480;9.806;2022-10-26T09:31:04;14.80;99.90
19348;DHT22;9810;52.480;9.806;2022-10-26T09:33:34;15.00;99.90
19348;DHT22;9810;52.480;9.806;2022-10-26T09:36:04;15.70;99.90
19348;DHT22;9810;52.480;9.806;2022-10-26T09:38:35;17.80;99.90
19348;DHT22;9810;52.480;9.806;2022-10-26T09:41:17;19.90;99.90
19348;DHT22;9810;52.480;9.806;2022-10-26T09:43:49;21.00;99.90
19348;DHT22;9810;52.480;9.806;2022-10-26T09:46:25;22.10;99.90
19348;DHT22;9810;52.480;9.806;2022-10-26T09:48:56;22.10;99.90
19348;DHT22;9810;52.480;9.806;2022-10-26T09:51:24;21.90;99.90
19348;DHT22;9810;52.480;9.806;2022-10-26T09:53:53;21.90;99.90
19348;DHT22;9810;52.480;9.806;2022-10-26T09:56:22;23.30;99.90
19348;DHT22;9810;52.480;9.806;2022-10-26T09:58:56;22.60;99.90
19348;DHT22;9810;52.480;9.806;2022-10-26T10:01:31;22.50;99.90
19348;DHT22;9810;52.480;9.806;2022-10-26T10:04:15;22.10;99.90
19348;DHT22;9810;52.480;9.806;2022-10-26T10:06:45;21.30;99.90
19348;DHT22;9810;52.480;9.806;2022-10-26T10:09:14;21.00;99.90
19348;DHT22;9810;52.480;9.806;2022-10-26T10:11:44;20.80;99.90
19348;DHT22;9810;52.480;9.806;2022-10-26T10:14:22;21.20;99.90
19348;DHT22;9810;52.480;9.806;2022-10-26T10:16:52;23.00;99.90
19348;DHT22;9810;52.480;9.806;2022-10-26T10:19:23;24.00;99.90
19348;DHT22;9810;52.480;9.806;2022-10-26T10:21:53;25.10;99.90
19348;DHT22;9810;52.480;9.806;2022-10-26T10:24:26;24.80;99.90
19348;DHT22;9810;52.480;9.806;2022-10-26T10:26:59;23.20;99.90
19348;DHT22;9810;52.480;9.806;2022-10-26T10:29:29;21.70;99.90
19348;DHT22;9810;52.480;9.806;2022-10-26T10:31:57;21.20;99.90
19348;DHT22;9810;52.480;9.806;2022-10-26T10:34:25;20.60;99.90
19348;DHT22;9810;52.480;9.806;2022-10-26T10:36:53;20.50;99.90
19348;DHT22;9810;52.480;9.806;2022-10-26T10:39:39;20.40;99.90
19348;DHT22;9810;52.480;9.806;2022-10-26T10:42:20;20.20;99.90
19348;DHT22;9810;52.480;9.806;2022-10-26T10:44:52;19.90;99.90
19348;DHT22;9810;52.480;9.806;2022-10-26T10:47:23;19.90;99.90
19348;DHT22;9810;52.480;9.806;2022-10-26T10:49:53;19.20;99.90
19348;DHT22;9810;52.480;9.806;2022-10-26T10:52:24;19.10;99.90
19348;DHT22;9810;52.480;9.806;2022-10-26T10:55:00;18.80;99.90
19348;DHT22;9810;52.480;9.806;2022-10-26T10:57:35;18.40;99.90
19348;DHT22;9810;52.480;9.806;2022-10-26T11:00:08;18.60;99.90
19348;DHT22;9810;52.480;9.806;2022-10-26T11:03:00;18.80;99.90
19348;DHT22;9810;52.480;9.806;2022-10-26T11:05:44;18.40;99.90
19348;DHT22;9810;52.480;9.806;2022-10-26T11:08:18;18.10;99.90
19348;DHT22;9810;52.480;9.806;2022-10-26T11:10:49;18.00;99.90
19348;DHT22;9810;52.480;9.806;2022-10-26T11:13:20;18.10;99.90
19348;DHT22;9810;52.480;9.806;2022-10-26T11:15:53;18.00;99.90
19348;DHT22;9810;52.480;9.806;2022-10-26T11:18:26;17.90;99.90
19348;DHT22;9810;52.480;9.806;2022-10-26T11:21:01;18.00;99.90
19348;DHT22;9810;52.480;9.806;2022-10-26T11:23:34;17.80;99.90
19348;DHT22;9810;52.480;9.806;2022-10-26T11:26:08;17.90;99.90
19348;DHT22;9810;52.480;9.806;2022-10-26T11:28:43;17.90;99.90
19348;DHT22;9810;52.480;9.806;2022-10-26T11:31:16;17.60;99.90
19348;DHT22;9810;52.480;9.806;2022-10-26T11:33:50;17.50;99.90
19348;DHT22;9810;52.480;9.806;2022-10-26T11:36:21;17.70;99.90
19348;DHT22;9810;52.480;9.806;2022-10-26T11:38:54;17.70;99.90
19348;DHT22;9810;52.480;9.806;2022-10-26T11:41:28;17.80;99.90
19348;DHT22;9810;52.480;9.806;2022-10-26T11:44:01;17.90;99.90
19348;DHT22;9810;52.480;9.806;2022-10-26T11:46:36;18.20;99.90
19348;DHT22;9810;52.480;9.806;2022-10-26T11:49:12;18.40;99.90
19348;DHT22;9810;52.480;9.806;2022-10-26T11:51:43;18.60;99.90
19348;DHT22;9810;52.480;9.806;2022-10-26T11:54:20;19.00;99.90
19348;DHT22;9810;52.480;9.806;2022-10-26T11:56:52;19.00;99.90
19348;DHT22;9810;52.480;9.806;2022-10-26T11:59:23;19.30;99.90
19348;DHT22;9810;52.480;9.806;2022-10-26T12:01:55;19.10;99.90
19348;DHT22;9810;52.480;9.806;2022-10-26T12:04:28;18.90;99.90
19348;DHT22;9810;52.480;9.806;2022-10-26T12:06:58;18.90;99.90
19348;DHT22;9810;52.480;9.806;2022-10-26T12:09:30;18.80;99.90
19348;DHT22;9810;52.480;9.806;2022-10-26T12:12:03;19.00;99.90
19348;DHT22;9810;52.480;9.806;2022-10-26T12:14:37;19.00;99.90
19348;DHT22;9810;52.480;9.806;2022-10-26T12:17:11;19.20;99.90
19348;DHT22;9810;52.480;9.806;2022-10-26T12:19:45;19.10;99.90
19348;DHT22;9810;52.480;9.806;2022-10-26T12:22:16;19.00;99.90
19348;DHT22;9810;52.480;9.806;2022-10-26T12:24:44;19.10;99.90
19348;DHT22;9810;52.480;9.806;2022-10-26T12:27:30;19.20;99.90
19348;DHT22;9810;52.480;9.806;2022-10-26T12:30:26;19.00;99.90
19348;DHT22;9810;52.480;9.806;2022-10-26T12:32:57;19.00;99.90
19348;DHT22;9810;52.480;9.806;2022-10-26T12:35:39;19.10;99.90
19348;DHT22;9810;52.480;9.806;2022-10-26T12:38:26;18.90;99.90
19348;DHT22;9810;52.480;9.806;2022-10-26T12:41:21;18.70;99.90
19348;DHT22;9810;52.480;9.806;2022-10-26T12:43:50;18.60;99.90
19348;DHT22;9810;52.480;9.806;2022-10-26T12:46:42;18.50;99.90
19348;DHT22;9810;52.480;9.806;2022-10-26T12:52:50;18.70;99.90
19348;DHT22;9810;52.480;9.806;2022-10-26T13:01:45;19.00;99.90
19348;DHT22;9810;52.480;9.806;2022-10-26T13:07:19;18.90;99.90
19348;DHT22;9810;52.480;9.806;2022-10-26T13:09:55;18.60;99.90
19348;DHT22;9810;52.480;9.806;2022-10-26T13:12:25;18.50;99.90
19348;DHT22;9810;52.480;9.806;2022-10-26T13:14:57;18.40;99.90
19348;DHT22;9810;52.480;9.806;2022-10-26T13:17:27;18.50;99.90
19348;DHT22;9810;52.480;9.806;2022-10-26T13:19:57;18.70;99.90
19348;DHT22;9810;52.480;9.806;2022-10-26T13:22:25;18.90;99.90
19348;DHT22;9810;52.480;9.806;2022-10-26T13:24:56;18.90;99.90
19348;DHT22;9810;52.480;9.806;2022-10-26T13:27:43;18.80;99.90
19348;DHT22;9810;52.480;9.806;2022-10-26T13:30:21;18.70;99.90
19348;DHT22;9810;52.480;9.806;2022-10-26T13:33:01;18.60;99.90
19348;DHT22;9810;52.480;9.806;2022-10-26T13:35:30;18.80;99.90
19348;DHT22;9810;52.480;9.806;2022-10-26T13:37:59;18.90;99.90
19348;DHT22;9810;52.480;9.806;2022-10-26T13:40:36;18.90;99.90
19348;DHT22;9810;52.480;9.806;2022-10-26T13:43:06;18.90;99.90
19348;DHT22;9810;52.480;9.806;2022-10-26T13:45:46;18.90;99.90
19348;DHT22;9810;52.480;9.806;2022-10-26T13:48:17;18.90;99.90
19348;DHT22;9810;52.480;9.806;2022-10-26T13:50:47;18.90;99.90
19348;DHT22;9810;52.480;9.806;2022-10-26T13:53:19;18.90;99.90
19348;DHT22;9810;52.480;9.806;2022-10-26T13:55:53;18.80;99.90
19348;DHT22;9810;52.480;9.806;2022-10-26T13:58:25;18.70;99.90
19348;DHT22;9810;52.480;9.806;2022-10-26T14:01:02;18.80;99.90
19348;DHT22;9810;52.480;9.806;2022-10-26T14:03:29;18.80;99.90
19348;DHT22;9810;52.480;9.806;2022-10-26T14:05:56;18.80;99.90
19348;DHT22;9810;52.480;9.806;2022-10-26T14:08:24;18.80;99.90
19348;DHT22;9810;52.480;9.806;2022-10-26T14:10:55;18.80;99.90
19348;DHT22;9810;52.480;9.806;2022-10-26T14:13:24;18.60;99.90
19348;DHT22;9810;52.480;9.806;2022-10-26T14:15:53;18.60;99.90
19348;DHT22;9810;52.480;9.806;2022-10-26T14:18:24;18.50;99.90
19348;DHT22;9810;52.480;9.806;2022-10-26T14:20:56;18.40;99.90
19348;DHT22;9810;52.480;9.806;2022-10-26T14:23:25;18.30;99.90
19348;DHT22;9810;52.480;9.806;2022-10-26T14:25:54;18.30;99.90
19348;DHT22;9810;52.480;9.806;2022-10-26T14:28:24;18.30;99.90
19348;DHT22;9810;52.480;9.806;2022-10-26T14:30:51;18.40;99.90
19348;DHT22;9810;52.480;9.806;2022-10-26T14:33:22;18.40;99.90
19348;DHT22;9810;52.480;9.806;2022-10-26T14:35:50;18.40;99.90
19348;DHT22;9810;52.480;9.806;2022-10-26T14:38:20;18.40;99.90
19348;DHT22;9810;52.480;9.806;2022-10-26T14:40:48;18.40;99.90
19348;DHT22;9810;52.480;9.806;2022-10-26T14:43:21;18.40;99.90
19348;DHT22;9810;52.480;9.806;2022-10-26T14:45:51;18.40;99.90
19348;DHT22;9810;52.480;9.806;2022-10-26T14:48:22;18.50;99.90
19348;DHT22;9810;52.480;9.806;2022-10-26T14:51:04;18.40;99.90
19348;DHT22;9810;52.480;9.806;2022-10-26T14:53:36;18.30;99.90
19348;DHT22;9810;52.480;9.806;2022-10-26T14:56:05;18.30;99.90
19348;DHT22;9810;52.480;9.806;2022-10-26T14:58:44;18.20;99.90
19348;DHT22;9810;52.480;9.806;2022-10-26T15:01:24;18.10;99.90
19348;DHT22;9810;52.480;9.806;2022-10-26T15:03:55;18.10;99.90
19348;DHT22;9810;52.480;9.806;2022-10-26T15:06:41;18.00;99.90
19348;DHT22;9810;52.480;9.806;2022-10-26T15:09:28;17.90;99.90
19348;DHT22;9810;52.480;9.806;2022-10-26T15:11:56;17.70;99.90
19348;DHT22;9810;52.480;9.806;2022-10-26T15:14:25;17.60;99.90
19348;DHT22;9810;52.480;9.806;2022-10-26T15:16:54;17.50;99.90
19348;DHT22;9810;52.480;9.806;2022-10-26T15:19:21;17.50;99.90
19348;DHT22;9810;52.480;9.806;2022-10-26T15:21:51;17.50;99.90
19348;DHT22;9810;52.480;9.806;2022-10-26T15:24:29;17.40;99.90
19348;DHT22;9810;52.480;9.806;2022-10-26T15:26:56;17.30;99.90
19348;DHT22;9810;52.480;9.806;2022-10-26T15:29:37;17.20;99.90
19348;DHT22;9810;52.480;9.806;2022-10-26T15:32:16;17.10;99.90
19348;DHT22;9810;52.480;9.806;2022-10-26T15:37:29;17.00;99.90
19348;DHT22;9810;52.480;9.806;2022-10-26T15:39:58;16.90;99.90
19348;DHT22;9810;52.480;9.806;2022-10-26T15:42:26;16.80;99.90
19348;DHT22;9810;52.480;9.806;2022-10-26T15:44:55;16.80;99.90
19348;DHT22;9810;52.480;9.806;2022-10-26T15:47:28;16.60;99.90
19348;DHT22;9810;52.480;9.806;2022-10-26T15:49:58;16.50;99.90
19348;DHT22;9810;52.480;9.806;2022-10-26T15:52:25;16.20;99.90
19348;DHT22;9810;52.480;9.806;2022-10-26T15:54:52;16.20;99.90
19348;DHT22;9810;52.480;9.806;2022-10-26T15:57:19;16.20;99.90
19348;DHT22;9810;52.480;9.806;2022-10-26T15:59:46;16.20;99.90
19348;DHT22;9810;52.480;9.806;2022-10-26T16:02:15;16.10;99.90
19348;DHT22;9810;52.480;9.806;2022-10-26T16:04:43;16.00;99.90
19348;DHT22;9810;52.480;9.806;2022-10-26T16:07:12;15.90;99.90
19348;DHT22;9810;52.480;9.806;2022-10-26T16:09:41;15.70;99.90
19348;DHT22;9810;52.480;9.806;2022-10-26T16:12:09;15.60;99.90
19348;DHT22;9810;52.480;9.806;2022-10-26T16:14:37;15.60;99.90
19348;DHT22;9810;52.480;9.806;2022-10-26T16:17:05;15.50;99.90
19348;DHT22;9810;52.480;9.806;2022-10-26T16:19:34;15.40;99.90
19348;DHT22;9810;52.480;9.806;2022-10-26T16:22:01;15.40;99.90
19348;DHT22;9810;52.480;9.806;2022-10-26T16:24:30;15.20;99.90
19348;DHT22;9810;52.480;9.806;2022-10-26T16:26:57;15.20;99.90
19348;DHT22;9810;52.480;9.806;2022-10-26T16:29:25;15.10;99.90
19348;DHT22;9810;52.480;9.806;2022-10-26T16:31:52;15.00;99.90
19348;DHT22;9810;52.480;9.806;2022-10-26T16:34:19;15.00;99.90
19348;DHT22;9810;52.480;9.806;2022-10-26T16:36:47;14.80;99.90